Time;durP1;ratioP1;P1;durP2;ratioP2;P2;SDS_P1;SDS_P2;PMS_P1;PMS_P2;Temp;Humidity;BMP_temperature;BMP_pressure;BME280_temperature;BME280_humidity;BME280_pressure;Samples;Min_cycle;Max_cycle;Signal;HPM_P1;HPM_P2
2021/08/04 00:00:37;;;;;;;7.85;5.00;;;;;;;13.85;77.48;101519.88;5028385;28;20033;-73
2021/08/04 00:03:02;;;;;;;4.85;4.15;;;;;;;13.85;77.43;101519.88;5028411;28;20061;-72
2021/08/04 00:05:27;;;;;;;6.50;4.70;;;;;;;13.80;77.20;101511.13;5046312;28;20030;-74
2021/08/04 00:07:53;;;;;;;7.35;4.50;;;;;;;13.78;77.75;101519.03;5045907;28;20029;-73
2021/08/04 00:10:20;;;;;;;6.93;4.80;;;;;;;13.81;77.89;101515.50;5046001;28;20030;-73
2021/08/04 00:12:47;;;;;;;7.78;4.60;;;;;;;13.82;77.64;101512.00;5045950;28;20037;-73
2021/08/04 00:15:14;;;;;;;7.47;4.78;;;;;;;13.82;77.97;101512.84;5045845;28;20045;-73
2021/08/04 00:17:40;;;;;;;7.05;4.88;;;;;;;13.87;77.68;101518.09;5045902;28;20076;-72
2021/08/04 00:20:07;;;;;;;5.63;4.70;;;;;;;13.85;76.53;101509.31;5045913;28;20029;-73
2021/08/04 00:22:33;;;;;;;5.82;4.47;;;;;;;13.87;77.54;101512.81;5045770;28;20034;-74
2021/08/04 00:24:59;;;;;;;6.32;5.07;;;;;;;13.86;77.08;101519.00;5044804;28;20029;-73
2021/08/04 00:27:26;;;;;;;7.03;5.03;;;;;;;13.84;77.44;101515.50;5043957;28;20133;-73
2021/08/04 00:29:52;;;;;;;5.78;4.35;;;;;;;13.82;77.46;101512.00;5045582;28;20029;-73
2021/08/04 00:32:19;;;;;;;4.72;4.22;;;;;;;13.77;78.11;101519.03;5027773;28;20052;-73
2021/08/04 00:34:45;;;;;;;6.22;4.85;;;;;;;13.76;77.96;101517.28;5045791;28;20044;-73
2021/08/04 00:37:10;;;;;;;11.52;5.45;;;;;;;13.76;77.52;101515.53;5045502;28;20120;-73
2021/08/04 00:39:35;;;;;;;5.40;4.72;;;;;;;13.79;77.01;101512.88;5045319;28;20033;-74
2021/08/04 00:42:01;;;;;;;5.57;4.90;;;;;;;13.77;77.65;101511.13;5045376;28;20033;-73
2021/08/04 00:44:26;;;;;;;6.35;5.00;;;;;;;13.80;77.50;101513.75;5045353;28;20033;-75
2021/08/04 00:46:51;;;;;;;6.72;4.95;;;;;;;13.81;77.24;101513.72;5045572;28;20089;-74
2021/08/04 00:49:17;;;;;;;6.53;4.93;;;;;;;13.88;77.15;101511.97;5045197;28;20033;-73
2021/08/04 00:51:42;;;;;;;7.72;5.50;;;;;;;13.91;76.96;101518.97;5045269;28;20045;-73
2021/08/04 00:54:08;;;;;;;6.70;5.15;;;;;;;13.92;76.83;101516.34;5045309;28;20037;-75
2021/08/04 00:56:34;;;;;;;7.75;5.20;;;;;;;13.93;76.90;101514.56;5042445;28;20033;-74
2021/08/04 00:59:01;;;;;;;6.93;5.18;;;;;;;13.96;77.37;101518.06;5044530;28;20033;-74
2021/08/04 01:01:39;;;;;;;6.57;4.88;;;;;;;13.95;77.21;101520.72;5045335;28;20492;-73
2021/08/04 01:04:10;;;;;;;5.63;5.03;;;;;;;13.98;76.88;101521.56;5027293;28;20017;-74
2021/08/04 01:06:49;;;;;;;10.57;5.10;;;;;;;14.01;76.88;101521.56;5044968;28;20021;-74
2021/08/04 01:09:17;;;;;;;7.80;5.13;;;;;;;14.03;77.12;101518.94;5044722;28;20083;-74
2021/08/04 01:11:49;;;;;;;8.85;5.10;;;;;;;14.03;76.46;101522.44;5045042;28;20052;-74
2021/08/04 01:14:19;;;;;;;8.77;5.47;;;;;;;14.01;76.82;101515.41;5044951;28;20069;-73
2021/08/04 01:16:47;;;;;;;7.65;5.35;;;;;;;13.99;77.09;101525.13;5045149;28;20053;-74
2021/08/04 01:19:25;;;;;;;6.22;5.13;;;;;;;13.95;76.92;101518.06;5044778;28;20054;-73
2021/08/04 01:22:06;;;;;;;8.15;5.47;;;;;;;13.94;77.10;101516.34;5044914;28;20052;-73
2021/08/04 01:24:46;;;;;;;7.30;5.28;;;;;;;13.92;77.66;101516.34;5045179;28;20025;-74
2021/08/04 01:27:11;;;;;;;;;;;;;;;13.89;77.62;101520.75;5042971;28;20058;-74
2021/08/04 01:29:37;;;;;;;10.60;4.75;;;;;;;13.87;77.77;101514.59;5044616;28;19925;-74
2021/08/04 01:32:04;;;;;;;7.10;4.93;;;;;;;13.84;77.70;101516.38;5044812;28;20033;-74
2021/08/04 01:34:35;;;;;;;6.40;5.20;;;;;;;13.80;78.43;101517.28;5044849;28;20081;-73
2021/08/04 01:37:01;;;;;;;6.72;5.28;;;;;;;13.78;77.89;101516.41;5044743;28;20393;-73
2021/08/04 01:39:27;;;;;;;7.97;5.68;;;;;;;13.77;78.36;101516.41;5044706;28;20025;-74
2021/08/04 01:41:55;;;;;;;10.15;5.60;;;;;;;13.76;79.01;101512.00;5044709;28;20053;-73
2021/08/04 01:44:21;;;;;;;7.28;5.75;;;;;;;13.80;78.55;101519.03;5044799;28;20025;-73
2021/08/04 01:46:47;;;;;;;7.20;5.75;;;;;;;13.78;78.44;101515.50;5044624;28;20057;-73
2021/08/04 01:49:13;;;;;;;6.88;5.53;;;;;;;13.76;78.81;101526.09;5044616;28;20075;-72
2021/08/04 01:51:39;;;;;;;12.50;5.95;;;;;;;13.73;78.53;101518.19;5044598;28;20037;-72
2021/08/04 01:54:05;;;;;;;8.60;5.88;;;;;;;13.72;79.25;101515.53;5044834;28;20025;-73
2021/08/04 01:56:30;;;;;;;9.00;5.72;;;;;;;13.71;79.15;101519.06;5041915;28;20060;-72
2021/08/04 01:58:55;;;;;;;10.57;5.43;;;;;;;13.73;79.67;101517.31;5044598;28;20029;-73
2021/08/04 02:01:25;;;;;;;6.95;5.57;;;;;;;13.76;79.55;101518.19;5044395;28;20025;-74
2021/08/04 02:03:50;;;;;;;;;;;;;;;13.78;79.67;101518.16;5044966;28;20026;-73
2021/08/04 02:06:26;;;;;;;11.50;6.10;;;;;;;13.80;79.26;101511.13;5044882;28;20011;-74
2021/08/04 02:09:13;;;;;;;8.95;6.47;;;;;;;13.82;79.38;101520.78;5045441;28;20068;-74
2021/08/04 02:12:03;;;;;;;10.88;6.47;;;;;;;13.84;79.32;101519.00;5048023;28;20037;-75
2021/08/04 02:14:34;;;;;;;8.20;6.50;;;;;;;13.84;78.70;101519.00;5047843;28;20057;-72
2021/08/04 02:17:03;;;;;;;7.93;6.57;;;;;;;13.85;78.68;101517.25;5048150;28;20029;-73
2021/08/04 02:19:36;;;;;;;8.52;6.72;;;;;;;13.83;78.54;101511.97;5048122;28;20021;-73
2021/08/04 02:22:07;;;;;;;8.90;6.47;;;;;;;13.83;78.85;101511.09;5048084;28;20029;-74
2021/08/04 02:24:35;;;;;;;8.18;6.20;;;;;;;13.80;78.82;101508.47;5048045;28;20053;-72
2021/08/04 02:27:02;;;;;;;9.10;7.05;;;;;;;13.78;79.02;101510.22;5045360;28;20033;-73
2021/08/04 02:29:34;;;;;;;9.52;7.18;;;;;;;13.71;79.01;101503.22;5048145;28;20081;-73
2021/08/04 02:32:01;;;;;;;12.50;7.55;;;;;;;13.68;79.11;101503.22;5047676;28;20037;-73
2021/08/04 02:34:28;;;;;;;10.13;7.20;;;;;;;13.67;79.03;101501.47;5047902;28;20040;-73
2021/08/04 02:36:53;;;;;;;12.10;7.07;;;;;;;13.64;79.52;101499.72;5047699;28;20028;-73
2021/08/04 02:39:19;;;;;;;13.25;7.78;;;;;;;13.61;79.54;101498.00;5047602;28;20056;-73
2021/08/04 02:41:45;;;;;;;9.68;7.85;;;;;;;13.55;79.26;101503.25;5047595;28;20037;-73
2021/08/04 02:44:15;;;;;;;11.07;8.30;;;;;;;13.51;79.78;101498.88;5047960;28;20029;-74
2021/08/04 02:46:40;;;;;;;;;;;;;;;13.47;80.13;101502.41;5048147;28;20427;-73
2021/08/04 02:49:06;;;;;;;9.25;7.40;;;;;;;13.42;79.63;101489.25;5047299;28;19941;-72
2021/08/04 02:51:32;;;;;;;11.32;7.95;;;;;;;13.40;80.21;101488.38;5047152;28;20040;-73
2021/08/04 02:53:58;;;;;;;11.35;8.40;;;;;;;13.37;80.19;101487.50;5047420;28;20044;-72
2021/08/04 02:56:25;;;;;;;11.40;7.95;;;;;;;13.34;79.95;101479.59;5045714;28;20048;-72
2021/08/04 02:58:51;;;;;;;10.77;8.35;;;;;;;13.29;80.32;101481.31;5047574;28;20029;-74
2021/08/04 03:01:17;;;;;;;11.30;8.70;;;;;;;13.24;80.46;101483.97;5047179;28;20025;-73
2021/08/04 03:03:42;;;;;;;9.85;8.18;;;;;;;13.21;80.55;101484.88;5047442;28;20085;-73
2021/08/04 03:06:07;;;;;;;12.68;8.40;;;;;;;13.18;80.79;101479.59;5047157;28;20039;-73
2021/08/04 03:08:33;;;;;;;16.05;8.52;;;;;;;13.16;80.72;101481.38;5046792;28;20033;-73
2021/08/04 03:10:58;;;;;;;12.25;8.48;;;;;;;13.11;80.96;101491.03;5047045;28;20064;-73
2021/08/04 03:13:24;;;;;;;12.07;9.13;;;;;;;13.10;81.21;101484.03;5047102;28;20029;-73
2021/08/04 03:15:50;;;;;;;12.82;9.07;;;;;;;13.10;81.31;101494.56;5046900;28;20492;-73
2021/08/04 03:18:15;;;;;;;13.52;9.70;;;;;;;13.09;81.41;101489.28;5046919;28;20034;-74
2021/08/04 03:20:40;;;;;;;13.95;8.75;;;;;;;13.13;80.96;101493.69;5046010;28;20030;-74
2021/08/04 03:23:06;;;;;;;12.27;9.00;;;;;;;13.11;81.24;101491.03;5046808;28;20044;-73
2021/08/04 03:25:32;;;;;;;13.13;8.80;;;;;;;13.12;81.66;101484.00;5044618;28;20097;-73
2021/08/04 03:27:57;;;;;;;12.95;8.82;;;;;;;13.11;81.29;101490.16;5028726;28;20029;-73
2021/08/04 03:30:23;;;;;;;12.52;8.82;;;;;;;13.09;81.18;101489.28;5046871;28;20033;-74
2021/08/04 03:32:48;;;;;;;13.65;8.93;;;;;;;13.07;81.36;101491.94;5046554;28;20034;-73
2021/08/04 03:35:14;;;;;;;13.45;9.30;;;;;;;13.04;81.79;101484.91;5028871;28;20191;-73
2021/08/04 03:37:41;;;;;;;13.73;8.48;;;;;;;13.06;81.35;101485.78;5046793;28;20043;-74
2021/08/04 03:40:07;;;;;;;14.07;9.05;;;;;;;13.08;81.31;101485.78;5046593;28;20060;-73
2021/08/04 03:42:33;;;;;;;12.98;8.73;;;;;;;13.04;81.46;101486.66;5046264;28;20034;-74
2021/08/04 03:44:58;;;;;;;12.35;8.48;;;;;;;13.02;81.22;101483.13;5046520;28;20040;-73
2021/08/04 03:47:23;;;;;;;14.00;9.20;;;;;;;13.01;81.43;101490.19;5046299;28;20036;-74
2021/08/04 03:49:49;;;;;;;13.88;8.85;;;;;;;12.96;81.51;101484.03;5046274;28;20116;-73
2021/08/04 03:52:14;;;;;;;12.40;9.50;;;;;;;12.96;81.97;101485.78;5046341;28;20083;-74
2021/08/04 03:54:39;;;;;;;12.70;9.48;;;;;;;12.95;81.58;101489.28;5046395;28;20454;-73
2021/08/04 03:57:05;;;;;;;12.40;9.38;;;;;;;12.93;81.75;101486.69;5027020;28;20025;-73
2021/08/04 03:59:30;;;;;;;14.38;9.65;;;;;;;12.92;81.79;101486.69;5046374;28;20095;-73
2021/08/04 04:01:55;;;;;;;11.25;9.43;;;;;;;12.90;81.48;101483.16;5046083;28;20034;-73
2021/08/04 04:04:21;;;;;;;10.93;8.93;;;;;;;12.91;81.66;101492.81;5028493;28;20025;-74
2021/08/04 04:06:46;;;;;;;14.57;8.73;;;;;;;12.91;82.10;101490.19;5046151;28;20069;-73
2021/08/04 04:09:11;;;;;;;11.45;8.50;;;;;;;12.90;81.77;101494.59;5045753;28;20128;-73
2021/08/04 04:11:37;;;;;;;12.07;9.13;;;;;;;12.90;81.59;101486.69;5045862;28;20501;-73
2021/08/04 04:14:02;;;;;;;11.25;8.68;;;;;;;12.88;81.52;101496.34;5045896;28;20060;-73
2021/08/04 04:16:28;;;;;;;12.95;9.57;;;;;;;12.87;81.66;101495.47;5046052;28;20033;-73
2021/08/04 04:18:53;;;;;;;12.70;8.82;;;;;;;12.86;81.83;101496.34;5045661;28;20037;-74
2021/08/04 04:21:18;;;;;;;13.43;10.10;;;;;;;12.82;81.46;101499.88;5045686;28;20037;-73
2021/08/04 04:23:44;;;;;;;15.52;10.00;;;;;;;12.80;82.14;101506.91;5045542;28;20038;-73
2021/08/04 04:26:09;;;;;;;15.65;9.88;;;;;;;12.82;81.94;101507.78;5043898;28;20037;-73
2021/08/04 04:28:34;;;;;;;16.85;10.15;;;;;;;12.82;82.06;101509.56;5027592;28;20053;-74
2021/08/04 04:31:00;;;;;;;13.30;9.80;;;;;;;12.83;81.63;101516.56;5045755;28;20032;-73
2021/08/04 04:33:26;;;;;;;12.25;9.18;;;;;;;12.83;81.73;101519.19;5045407;28;20111;-73
2021/08/04 04:35:51;;;;;;;13.07;9.50;;;;;;;12.82;81.45;101520.97;5045658;28;20029;-74
2021/08/04 04:38:17;;;;;;;13.57;10.20;;;;;;;12.80;81.85;101517.47;5045437;28;20045;-73
2021/08/04 04:40:42;;;;;;;15.73;10.80;;;;;;;12.82;82.44;101518.34;5045488;28;20026;-73
2021/08/04 04:43:08;;;;;;;14.25;10.18;;;;;;;12.91;82.46;101513.91;5045490;28;20030;-73
2021/08/04 04:45:33;;;;;;;13.10;10.32;;;;;;;13.01;82.26;101515.69;5045498;28;20101;-72
2021/08/04 04:47:59;;;;;;;13.98;9.90;;;;;;;13.06;81.90;101516.53;5045140;28;20026;-73
2021/08/04 04:50:24;;;;;;;15.57;10.40;;;;;;;13.07;81.88;101519.19;5045240;28;20042;-73
2021/08/04 04:52:49;;;;;;;16.88;10.77;;;;;;;13.11;81.48;101522.69;5045041;28;20049;-74
2021/08/04 04:55:15;;;;;;;14.82;10.50;;;;;;;13.16;81.39;101518.31;5043069;28;20124;-73
2021/08/04 04:57:40;;;;;;;14.43;10.93;;;;;;;13.18;81.47;101521.81;5044710;28;20500;-73
2021/08/04 05:00:08;;;;;;;14.07;10.18;;;;;;;13.20;81.38;101520.06;5045146;28;20463;-73
2021/08/04 05:02:42;;;;;;;12.65;10.13;;;;;;;13.22;81.40;101526.19;5044943;28;20026;-73
2021/08/04 05:05:09;;;;;;;13.57;9.75;;;;;;;13.23;81.34;101522.69;5045169;28;20488;-73
2021/08/04 05:07:34;;;;;;;13.55;10.40;;;;;;;13.26;81.11;101527.09;5044868;28;20116;-73
2021/08/04 05:10:00;;;;;;;14.77;10.60;;;;;;;13.30;81.42;101526.22;5044909;28;20037;-74
2021/08/04 05:12:25;;;;;;;13.10;10.05;;;;;;;13.35;81.09;101529.75;5045235;28;20037;-74
2021/08/04 05:14:51;;;;;;;15.05;10.48;;;;;;;13.38;81.12;101526.19;5044853;28;20053;-73
2021/08/04 05:17:16;;;;;;;12.63;9.68;;;;;;;13.39;81.26;101530.63;5044975;28;20030;-73
2021/08/04 05:19:42;;;;;;;15.18;10.13;;;;;;;13.46;81.27;101532.38;5045065;28;20440;-74
2021/08/04 05:22:08;;;;;;;13.05;10.27;;;;;;;13.50;81.21;101531.47;5044640;28;20030;-74
2021/08/04 05:24:34;;;;;;;12.75;9.48;;;;;;;13.53;80.85;101535.84;5045142;28;20049;-73
2021/08/04 05:26:59;;;;;;;13.45;9.13;;;;;;;13.60;80.25;101532.31;5042779;28;20040;-73
2021/08/04 05:29:24;;;;;;;14.07;9.88;;;;;;;13.67;80.51;101541.97;5044734;28;20056;-73
2021/08/04 05:31:50;;;;;;;12.00;8.77;;;;;;;13.72;80.40;101539.31;5044772;28;20026;-74
2021/08/04 05:34:17;;;;;;;13.70;9.55;;;;;;;13.79;80.51;101541.91;5044699;28;20041;-73
2021/08/04 05:36:43;;;;;;;11.73;9.20;;;;;;;13.89;80.04;101537.47;5044648;28;20040;-72
2021/08/04 05:39:08;;;;;;;12.73;9.20;;;;;;;14.00;79.96;101540.94;5044910;28;20093;-73
2021/08/04 05:41:34;;;;;;;12.30;9.30;;;;;;;14.10;80.52;101543.53;5044650;28;20037;-73
2021/08/04 05:43:59;;;;;;;12.10;9.75;;;;;;;14.18;80.22;101534.69;5045716;28;20460;-73
2021/08/04 05:46:24;;;;;;;12.50;9.40;;;;;;;14.28;79.61;101539.94;5048645;28;20041;-72
2021/08/04 05:48:50;;;;;;;12.90;8.70;;;;;;;14.38;79.66;101536.34;5048389;28;20033;-73
2021/08/04 05:51:15;;;;;;;14.13;8.98;;;;;;;14.47;77.23;101543.34;5048752;28;20033;-73
2021/08/04 05:53:40;;;;;;;12.07;8.80;;;;;;;14.56;77.73;101538.88;5048256;28;20029;-73
2021/08/04 05:56:06;;;;;;;11.88;8.75;;;;;;;14.68;78.38;101537.06;5045829;28;20037;-73
2021/08/04 05:58:31;;;;;;;11.85;9.52;;;;;;;14.77;77.92;101544.91;5048000;28;20044;-73
2021/08/04 06:00:57;;;;;;;10.10;8.48;;;;;;;14.90;76.86;101540.41;5048279;28;20112;-73
2021/08/04 06:03:22;;;;;;;13.70;9.18;;;;;;;15.00;76.16;101542.94;5048038;28;20060;-72
2021/08/04 06:05:47;;;;;;;14.27;9.00;;;;;;;15.13;76.09;101542.84;5048556;28;20052;-73
2021/08/04 06:08:13;;;;;;;14.38;8.80;;;;;;;15.26;74.41;101540.97;5048158;28;20037;-72
2021/08/04 06:10:38;;;;;;;12.32;8.57;;;;;;;15.35;74.68;101539.09;5048280;28;20033;-73
2021/08/04 06:13:04;;;;;;;10.57;8.63;;;;;;;15.46;74.50;101544.25;5048029;28;20057;-72
2021/08/04 06:15:29;;;;;;;11.63;8.25;;;;;;;15.54;73.29;101544.19;5047815;28;20038;-72
2021/08/04 06:17:55;;;;;;;12.00;8.32;;;;;;;15.63;74.10;101538.78;5048254;28;20041;-72
2021/08/04 06:20:20;;;;;;;13.07;8.70;;;;;;;15.71;73.84;101538.72;5048041;28;20033;-73
2021/08/04 06:22:46;;;;;;;10.43;8.52;;;;;;;15.79;73.78;101543.03;5048095;28;20033;-72
2021/08/04 06:25:12;;;;;;;9.70;7.75;;;;;;;15.92;72.61;101541.13;5045972;28;20026;-74
2021/08/04 06:27:37;;;;;;;11.20;7.85;;;;;;;16.03;72.99;101533.03;5047471;28;20026;-73
2021/08/04 06:30:04;;;;;;;9.50;8.25;;;;;;;16.15;71.88;101545.25;5047592;28;20045;-73
2021/08/04 06:32:29;;;;;;;12.18;8.50;;;;;;;16.34;72.27;101544.06;5048058;28;20026;-73
2021/08/04 06:34:55;;;;;;;10.48;8.05;;;;;;;16.53;70.46;101533.19;5047676;28;20037;-72
2021/08/04 06:37:20;;;;;;;12.38;8.30;;;;;;;16.67;69.31;101533.88;5047490;28;20030;-72
2021/08/04 06:39:45;;;;;;;11.35;7.75;;;;;;;16.74;69.56;101532.84;5047722;28;20037;-72
2021/08/04 06:42:11;;;;;;;11.45;8.15;;;;;;;16.85;69.01;101522.09;5047521;28;20052;-72
2021/08/04 06:44:36;;;;;;;12.00;7.97;;;;;;;17.01;67.83;101535.97;5047849;28;20026;-72
2021/08/04 06:47:02;;;;;;;9.15;7.28;;;;;;;17.13;68.56;101533.09;5047779;28;20021;-71
2021/08/04 06:49:27;;;;;;;12.13;7.93;;;;;;;17.23;67.80;101539.13;5047179;28;20492;-72
2021/08/04 06:51:53;;;;;;;10.73;7.72;;;;;;;17.25;67.39;101536.44;5047421;28;20052;-73
2021/08/04 06:54:19;;;;;;;10.98;8.20;;;;;;;17.44;67.91;101532.53;5029283;28;20029;-73
2021/08/04 06:56:44;;;;;;;10.45;7.35;;;;;;;17.51;67.20;101538.63;5041516;28;20594;-72
2021/08/04 06:59:09;;;;;;;13.93;8.13;;;;;;;17.53;67.08;101537.66;5047483;28;20037;-71
2021/08/04 07:01:35;;;;;;;10.68;7.78;;;;;;;17.59;66.13;101536.66;5047201;28;20076;-72
2021/08/04 07:04:00;;;;;;;10.20;7.75;;;;;;;17.63;66.92;101537.50;5047157;28;20030;-72
2021/08/04 07:06:25;;;;;;;9.93;8.15;;;;;;;17.67;66.30;101531.19;5029603;28;20055;-71
2021/08/04 07:08:51;;;;;;;10.68;8.20;;;;;;;17.73;65.59;101541.69;5046918;28;20037;-71
2021/08/04 07:11:21;;;;;;;9.20;7.82;;;;;;;17.81;66.63;101538.91;5047394;28;20021;-74
2021/08/04 07:13:47;;;;;;;11.43;7.82;;;;;;;17.80;66.35;101540.66;5047182;28;20030;-72
2021/08/04 07:16:12;;;;;;;9.77;7.97;;;;;;;17.84;66.72;101538.81;5047092;28;20140;-72
2021/08/04 07:18:38;;;;;;;9.40;7.82;;;;;;;17.89;65.97;101539.66;5047220;28;20489;-71
2021/08/04 07:21:03;;;;;;;9.55;7.40;;;;;;;17.99;66.25;101540.31;5046752;28;20064;-72
2021/08/04 07:23:29;;;;;;;9.65;8.45;;;;;;;18.10;65.87;101540.97;5046636;28;20025;-72
2021/08/04 07:25:54;;;;;;;7.30;6.50;;;;;;;18.30;64.57;101543.19;5044275;28;20414;-73
2021/08/04 07:28:19;;;;;;;11.02;7.40;;;;;;;18.37;64.34;101539.47;5046697;28;20041;-72
2021/08/04 07:30:46;;;;;;;9.02;6.72;;;;;;;18.46;64.46;101541.03;5046694;28;20590;-72
2021/08/04 07:33:11;;;;;;;10.70;7.38;;;;;;;18.49;64.23;101546.31;5046630;28;20060;-72
2021/08/04 07:35:36;;;;;;;9.63;7.00;;;;;;;18.58;64.35;101543.44;5046418;28;20025;-71
2021/08/04 07:38:02;;;;;;;11.18;7.63;;;;;;;18.66;64.76;101540.59;5046526;28;20064;-72
2021/08/04 07:40:27;;;;;;;9.82;7.72;;;;;;;18.79;62.87;101543.78;5046331;28;20033;-71
2021/08/04 07:42:53;;;;;;;10.70;7.05;;;;;;;18.85;63.35;101544.56;5046395;28;20036;-72
2021/08/04 07:45:20;;;;;;;10.70;6.53;;;;;;;18.93;60.86;101541.72;5028075;28;20038;-74
2021/08/04 07:47:45;;;;;;;7.68;6.88;;;;;;;18.97;60.15;101540.72;5028202;28;20052;-72
2021/08/04 07:50:12;;;;;;;8.75;6.43;;;;;;;19.07;60.56;101536.91;5045858;28;20044;-72
2021/08/04 07:52:38;;;;;;;8.70;6.63;;;;;;;19.21;60.40;101539.19;5046192;28;20029;-72
2021/08/04 07:55:06;;;;;;;9.38;5.50;;;;;;;19.26;58.35;101536.41;5043778;28;20041;-73
2021/08/04 07:57:32;;;;;;;7.53;5.40;;;;;;;19.38;57.67;101535.22;5045349;28;20026;-72
2021/08/04 07:59:57;;;;;;;7.35;5.55;;;;;;;19.46;56.85;101534.06;5045866;28;20037;-72
2021/08/04 08:02:22;;;;;;;6.45;5.18;;;;;;;19.53;57.08;101529.47;5045713;28;20037;-72
2021/08/04 08:04:48;;;;;;;10.40;5.38;;;;;;;19.55;55.68;101521.44;5045886;28;20033;-73
2021/08/04 08:07:13;;;;;;;6.00;4.80;;;;;;;19.66;57.20;101524.66;5045364;28;20404;-73
2021/08/04 08:09:38;;;;;;;8.23;5.53;;;;;;;19.75;56.63;101524.41;5027659;28;20042;-73
2021/08/04 08:12:05;;;;;;;7.07;5.63;;;;;;;19.77;55.84;101527.94;5045496;28;20032;-73
2021/08/04 08:14:31;;;;;;;5.60;5.05;;;;;;;19.85;56.42;101520.56;5045230;28;20057;-71
2021/08/04 08:16:57;;;;;;;6.75;5.15;;;;;;;20.02;55.91;101528.06;5045449;28;20094;-72
2021/08/04 08:19:24;;;;;;;7.72;5.63;;;;;;;20.12;55.67;101520.66;5045717;28;20037;-74
2021/08/04 08:21:50;;;;;;;7.93;5.60;;;;;;;20.21;55.90;101509.69;5045417;28;20451;-74
2021/08/04 08:24:16;;;;;;;8.35;5.00;;;;;;;20.34;56.02;101519.97;5045373;28;20033;-73
2021/08/04 08:26:41;;;;;;;4.90;4.40;;;;;;;20.44;55.80;101513.44;5042863;28;20033;-74
2021/08/04 08:29:07;;;;;;;7.53;4.70;;;;;;;20.51;53.61;101508.75;5045368;28;20416;-72
2021/08/04 08:31:35;;;;;;;6.95;4.55;;;;;;;20.45;52.03;101510.72;5045260;28;20102;-73
2021/08/04 08:34:02;;;;;;;5.55;3.70;;;;;;;20.63;51.10;101509.25;5045400;28;20052;-73
2021/08/04 08:36:29;;;;;;;5.65;5.10;;;;;;;20.62;51.39;101504.84;5045409;28;20113;-73
2021/08/04 08:38:54;;;;;;;4.72;3.50;;;;;;;20.74;51.26;101508.91;5045234;28;20032;-73
2021/08/04 08:41:20;;;;;;;4.22;3.65;;;;;;;20.74;49.73;101510.72;5045354;28;20033;-74
2021/08/04 08:43:46;;;;;;;6.65;4.15;;;;;;;20.68;50.44;101517.13;5045180;28;20048;-73
2021/08/04 08:46:12;;;;;;;7.82;4.40;;;;;;;20.62;50.99;101506.63;5045523;28;20041;-74
2021/08/04 08:48:38;;;;;;;5.15;4.55;;;;;;;20.69;51.32;101502.84;5045294;28;20037;-74
2021/08/04 08:51:03;;;;;;;8.23;5.07;;;;;;;20.79;50.70;101506.97;5045010;28;20034;-74
2021/08/04 08:53:29;;;;;;;11.52;4.68;;;;;;;20.90;50.90;101505.72;5045067;28;20028;-74
2021/08/04 08:55:54;;;;;;;7.53;4.57;;;;;;;21.02;49.99;101510.66;5043186;28;20539;-72
2021/08/04 08:58:20;;;;;;;9.20;5.00;;;;;;;20.98;49.01;101506.31;5044803;28;20029;-74
2021/08/04 09:00:45;;;;;;;7.00;5.07;;;;;;;21.05;50.34;101502.50;5044939;28;20079;-73
2021/08/04 09:03:11;;;;;;;5.13;3.60;;;;;;;21.27;49.57;101501.75;5044927;28;20029;-74
2021/08/04 09:05:58;;;;;;;7.90;4.38;;;;;;;21.39;50.71;101502.16;5044687;28;20029;-74
2021/08/04 09:08:32;;;;;;;7.07;4.25;;;;;;;21.43;49.57;101500.25;5044787;28;20034;-74
2021/08/04 09:11:11;;;;;;;5.75;4.07;;;;;;;21.54;50.41;101495.41;5044569;28;20515;-73
2021/08/04 09:13:36;;;;;;;6.78;4.40;;;;;;;21.52;48.34;101501.75;5044740;28;20089;-74
2021/08/04 09:16:06;;;;;;;5.72;4.07;;;;;;;21.66;47.75;101499.44;5044463;28;20045;-74
2021/08/04 09:18:48;;;;;;;;;;;;;;;21.53;45.75;101503.50;5044632;28;20176;-74
2021/08/04 09:21:16;;;;;;;8.68;5.38;;;;;;;21.63;47.35;101504.06;5044692;28;19913;-74
2021/08/04 09:23:44;;;;;;;6.93;6.07;;;;;;;21.54;46.97;101503.44;5044405;28;20108;-74
2021/08/04 09:26:14;;;;;;;8.05;6.57;;;;;;;21.64;46.42;101503.97;5042705;28;20029;-74
2021/08/04 09:28:58;;;;;;;8.88;6.45;;;;;;;21.53;46.28;101492.78;5044104;28;20488;-74
2021/08/04 09:31:48;;;;;;;9.13;6.95;;;;;;;21.58;47.22;101494.38;5044664;28;20034;-75
2021/08/04 09:34:35;;;;;;;10.27;7.22;;;;;;;21.65;46.21;101495.03;5044417;28;20037;-76
2021/08/04 09:37:17;;;;;;;10.05;7.97;;;;;;;21.70;45.75;101498.41;5044455;28;20025;-75
2021/08/04 09:39:55;;;;;;;8.77;7.88;;;;;;;21.74;46.26;101497.34;5024739;28;20038;-75
2021/08/04 09:42:21;;;;;;;9.85;8.10;;;;;;;21.96;47.30;101491.16;5024784;28;20840;-76
2021/08/04 09:44:55;;;;;;;9.98;7.38;;;;;;;22.01;45.55;101494.53;5024381;28;20041;-73
2021/08/04 09:47:20;;;;;;;12.15;7.85;;;;;;;22.30;47.44;101495.22;5034991;28;20021;-75
2021/08/04 09:49:59;;;;;;;7.93;7.13;;;;;;;22.39;46.98;101492.16;5044089;28;20120;-75
2021/08/04 09:52:25;;;;;;;12.98;8.70;;;;;;;22.28;46.61;101489.91;5044492;28;20044;-75
2021/08/04 09:54:50;;;;;;;11.00;7.78;;;;;;;22.26;47.50;101493.59;5042910;28;20041;-74
2021/08/04 09:57:16;;;;;;;8.38;7.10;;;;;;;22.26;48.10;101488.25;5043726;28;20041;-75
2021/08/04 10:00:06;;;;;;;9.50;7.75;;;;;;;22.20;47.42;101492.88;5044272;28;20025;-75
2021/08/04 10:02:32;;;;;;;9.25;7.97;;;;;;;22.12;46.65;101478.94;5043925;28;20151;-75
2021/08/04 10:05:24;;;;;;;9.77;8.73;;;;;;;21.84;47.38;101486.31;5043986;28;20071;-75
2021/08/04 10:08:11;;;;;;;9.52;8.30;;;;;;;21.43;49.80;101482.41;5044185;28;20026;-75
2021/08/04 10:10:41;;;;;;;9.15;8.05;;;;;;;21.54;49.17;101478.50;5044263;28;20044;-74
2021/08/04 10:13:08;;;;;;;8.13;7.35;;;;;;;21.61;48.59;101486.25;5044263;28;20082;-73
2021/08/04 10:15:41;;;;;;;9.75;7.88;;;;;;;21.56;50.84;101485.53;5042723;28;20069;-74
2021/08/04 10:18:38;;;;;;;11.15;8.30;;;;;;;21.40;49.10;101487.03;5043442;28;20037;-75
2021/08/04 10:21:08;;;;;;;10.18;8.18;;;;;;;21.22;48.71;101486.75;4963667;29;20039;-73
2021/08/04 10:23:36;;;;;;;9.38;6.93;;;;;;;21.28;48.15;101487.44;4963722;29;20109;-75
2021/08/04 10:26:02;;;;;;;10.80;6.68;;;;;;;21.47;48.57;101477.84;4963350;29;20050;-75
2021/08/04 10:28:29;;;;;;;7.88;6.32;;;;;;;21.74;48.76;101475.97;4963509;29;20123;-74
2021/08/04 10:30:56;;;;;;;8.63;6.70;;;;;;;21.89;47.39;101478.94;4965616;28;20038;-73
2021/08/04 10:33:22;;;;;;;7.00;6.30;;;;;;;21.96;46.65;101470.63;4966815;29;20035;-73
2021/08/04 10:35:52;;;;;;;6.93;5.97;;;;;;;22.22;48.24;101478.56;4966837;29;20054;-74
2021/08/04 10:38:21;;;;;;;8.80;6.97;;;;;;;22.39;46.80;101478.78;4966556;29;20153;-74
2021/08/04 10:41:19;;;;;;;11.52;8.63;;;;;;;22.45;44.55;101483.00;4964422;28;20092;-73
2021/08/04 10:43:48;;;;;;;8.55;7.38;;;;;;;22.44;44.38;101473.22;4966927;29;20055;-76
2021/08/04 10:46:31;;;;;;;11.05;8.48;;;;;;;22.45;46.38;101469.63;4966905;29;20039;-73
2021/08/04 10:49:19;;;;;;;10.98;8.90;;;;;;;22.48;44.34;101467.69;4966602;29;20059;-73
2021/08/04 10:52:09;;;;;;;11.48;9.48;;;;;;;22.48;43.80;101466.84;4966642;29;20035;-75
2021/08/04 10:54:35;;;;;;;9.60;8.65;;;;;;;22.48;44.56;101464.16;4960807;28;20047;-74
2021/08/04 10:57:00;;;;;;;12.48;8.13;;;;;;;22.52;44.85;101468.44;4989414;28;20064;-73
2021/08/04 10:59:30;;;;;;;8.40;7.43;;;;;;;22.61;42.58;101459.13;5047285;28;20030;-75
2021/08/04 11:02:17;;;;;;;8.20;6.80;;;;;;;22.83;43.71;101456.41;5046968;28;20025;-75
2021/08/04 11:04:45;;;;;;;9.25;8.05;;;;;;;22.80;42.90;101456.53;5046999;28;20025;-74
2021/08/04 11:07:16;;;;;;;10.75;8.05;;;;;;;22.61;44.25;101454.66;5046800;28;20135;-75
2021/08/04 11:09:51;;;;;;;10.07;8.10;;;;;;;22.53;44.94;101452.31;5045599;28;20077;-75
2021/08/04 11:12:21;;;;;;;8.63;6.95;;;;;;;22.35;45.92;101451.25;5044621;28;20037;-75
2021/08/04 11:14:54;;;;;;;10.63;7.32;;;;;;;22.18;45.63;101449.25;5046280;28;20080;-75
2021/08/04 11:17:30;;;;;;;11.38;7.40;;;;;;;22.00;46.25;101453.53;5028878;28;20060;-75
2021/08/04 11:20:06;;;;;;;8.02;7.20;;;;;;;21.79;47.14;101455.22;5046947;28;20050;-76
2021/08/04 11:22:42;;;;;;;8.38;7.57;;;;;;;21.71;45.92;101457.34;5047050;28;20051;-76
2021/08/04 11:25:11;;;;;;;8.65;7.38;;;;;;;21.67;44.98;101452.19;5046924;28;20029;-77